createdAt,value
2019-01-29T00:00:49.742Z,22.62
2019-01-29T00:03:18.245Z,18.42
2019-01-29T00:05:46.640Z,16.67
2019-01-29T00:08:14.988Z,23.45
2019-01-29T00:10:44.978Z,19.67
2019-01-29T00:13:14.286Z,23.32
2019-01-29T00:15:45.836Z,20.88
2019-01-29T00:18:14.143Z,18.17
2019-01-29T00:20:42.426Z,22.82
2019-01-29T00:23:12.992Z,17.45
2019-01-29T00:25:42.248Z,17.20
2019-01-29T00:28:10.524Z,18.65
2019-01-29T00:30:38.802Z,18.60
2019-01-29T00:33:07.194Z,20.25
2019-01-29T00:35:35.485Z,18.65
2019-01-29T00:38:03.756Z,20.02
2019-01-29T00:40:32.072Z,18.02
2019-01-29T00:43:01.992Z,18.67
2019-01-29T00:45:30.284Z,21.35
2019-01-29T00:47:58.598Z,22.62
2019-01-29T00:50:26.883Z,12.65
2019-01-29T00:52:55.365Z,18.52
2019-01-29T00:55:23.681Z,17.65
2019-01-29T00:57:51.971Z,21.87
2019-01-29T01:00:22.614Z,20.95
2019-01-29T01:02:51.106Z,19.42
2019-01-29T01:05:19.383Z,17.12
2019-01-29T01:07:47.668Z,18.42
2019-01-29T01:10:18.217Z,14.35
2019-01-29T01:12:46.696Z,9.60
2019-01-29T01:15:14.976Z,14.50
2019-01-29T01:17:43.301Z,12.28
2019-01-29T01:20:13.813Z,17.40
2019-01-29T01:22:50.724Z,12.28
2019-01-29T01:25:14.638Z,13.55
2019-01-29T01:27:43.075Z,15.90
2019-01-29T01:30:19.335Z,13.75
2019-01-29T01:32:47.646Z,9.40
2019-01-29T01:35:20.075Z,12.75
2019-01-29T01:37:48.396Z,15.40
2019-01-29T01:40:19.605Z,14.95
2019-01-29T01:42:49.634Z,7.83
2019-01-29T01:45:17.947Z,10.60
2019-01-29T01:47:46.545Z,12.37
2019-01-29T01:50:15.123Z,14.63
2019-01-29T01:52:43.397Z,13.85
2019-01-29T01:55:14.819Z,15.38
2019-01-29T01:57:44.739Z,15.48
2019-01-29T02:00:19.582Z,11.68
2019-01-29T02:02:50.942Z,15.98
2019-01-29T02:05:19.215Z,16.48
2019-01-29T02:07:47.570Z,16.55
2019-01-29T02:10:24.801Z,11.83
2019-01-29T02:12:54.378Z,15.45
2019-01-29T02:15:22.738Z,13.00
2019-01-29T02:17:51.365Z,19.05
2019-01-29T02:20:22.084Z,10.95
2019-01-29T02:22:50.447Z,15.25
2019-01-29T02:25:18.807Z,16.57
2019-01-29T02:27:47.107Z,15.40
2019-01-29T02:30:18.022Z,16.27
2019-01-29T02:32:46.530Z,16.37
2019-01-29T02:35:14.896Z,24.82
2019-01-29T02:37:43.197Z,25.70
2019-01-29T02:40:16.599Z,16.15
2019-01-29T02:42:46.535Z,20.40
2019-01-29T02:45:17.008Z,12.45
2019-01-29T02:47:45.628Z,19.35
2019-01-29T02:50:15.747Z,19.50
2019-01-29T02:52:44.026Z,14.35
2019-01-29T02:55:13.676Z,21.90
2019-01-29T02:57:41.948Z,14.93
2019-01-29T03:00:16.612Z,18.07
2019-01-29T03:02:45.119Z,12.95
2019-01-29T03:05:17.721Z,15.72
2019-01-29T03:07:46.153Z,21.20
2019-01-29T03:10:17.436Z,14.43
2019-01-29T03:12:45.961Z,15.48
2019-01-29T03:15:17.898Z,20.40
2019-01-29T03:17:51.924Z,21.50
2019-01-29T03:20:20.280Z,19.17
2019-01-29T03:22:49.936Z,17.95
2019-01-29T03:25:21.066Z,16.52
2019-01-29T03:27:52.500Z,23.80
2019-01-29T03:30:22.020Z,19.00
2019-01-29T03:32:50.298Z,23.20
2019-01-29T03:35:18.864Z,19.37
2019-01-29T03:37:47.135Z,18.27
2019-01-29T03:40:20.996Z,20.88
2019-01-29T03:42:49.308Z,22.67
2019-01-29T03:45:17.593Z,26.37
2019-01-29T03:47:46.014Z,28.12
2019-01-29T03:50:18.967Z,28.38
2019-01-29T03:52:47.260Z,23.25
2019-01-29T03:55:15.546Z,24.55
2019-01-29T03:57:43.912Z,29.30
2019-01-29T04:00:24.086Z,21.25
2019-01-29T04:02:52.598Z,28.12
2019-01-29T04:05:20.970Z,25.23
2019-01-29T04:07:49.329Z,28.35
2019-01-29T04:10:17.774Z,32.48
2019-01-29T04:12:46.333Z,32.70
2019-01-29T04:15:22.881Z,32.48
2019-01-29T04:17:57.855Z,40.95
2019-01-29T04:20:26.617Z,37.45
2019-01-29T04:22:54.970Z,44.03
2019-01-29T04:25:23.377Z,51.85
2019-01-29T04:27:51.663Z,53.08
2019-01-29T04:30:21.594Z,45.10
2019-01-29T04:32:49.925Z,43.95
2019-01-29T04:35:18.316Z,48.45
2019-01-29T04:37:46.622Z,54.73
2019-01-29T04:40:16.831Z,53.58
2019-01-29T04:42:45.115Z,57.27
2019-01-29T04:45:14.863Z,59.20
2019-01-29T04:47:43.153Z,69.97
2019-01-29T04:50:14.038Z,71.05
2019-01-29T04:52:42.571Z,76.05
2019-01-29T04:55:13.306Z,85.53
2019-01-29T04:57:41.886Z,85.70
2019-01-29T05:00:24.840Z,90.95
2019-01-29T05:02:54.480Z,98.78
2019-01-29T05:05:22.755Z,105.00
2019-01-29T05:07:51.086Z,122.33
2019-01-29T05:10:21.116Z,127.42
2019-01-29T05:12:49.542Z,128.68
2019-01-29T05:15:20.632Z,140.80
2019-01-29T05:17:49.001Z,152.55
2019-01-29T05:20:21.690Z,152.60
2019-01-29T05:22:50.217Z,157.27
2019-01-29T05:25:18.697Z,162.10
2019-01-29T05:27:47.252Z,158.52
2019-01-29T05:30:20.589Z,158.20
2019-01-29T05:32:48.307Z,146.25
2019-01-29T05:35:18.718Z,157.35
2019-01-29T05:37:47.041Z,160.30
2019-01-29T05:40:21.522Z,160.85
2019-01-29T05:42:50.158Z,168.52
2019-01-29T05:45:20.224Z,164.57
2019-01-29T05:47:48.601Z,159.72
2019-01-29T05:50:17.230Z,151.65
2019-01-29T05:52:45.526Z,159.55
2019-01-29T05:55:15.765Z,163.82
2019-01-29T05:57:44.165Z,171.13
2019-01-29T06:00:25.049Z,168.47
2019-01-29T06:02:53.420Z,160.75
2019-01-29T06:05:25.166Z,157.25
2019-01-29T06:07:53.452Z,163.20
2019-01-29T06:10:21.918Z,152.93
2019-01-29T06:12:50.272Z,154.70
2019-01-29T06:15:20.600Z,150.78
2019-01-29T06:17:52.038Z,141.15
2019-01-29T06:20:25.778Z,133.50
2019-01-29T06:22:56.698Z,134.85
2019-01-29T06:25:25.048Z,133.82
2019-01-29T06:27:53.468Z,125.47
2019-01-29T06:30:24.405Z,117.05
2019-01-29T06:32:53.952Z,110.40
2019-01-29T06:35:22.228Z,102.82
2019-01-29T06:37:50.563Z,102.58
2019-01-29T06:40:24.394Z,95.95
2019-01-29T06:42:52.854Z,94.03
2019-01-29T06:45:23.382Z,91.75
2019-01-29T06:47:51.706Z,91.20
2019-01-29T06:50:25.667Z,88.62
2019-01-29T06:52:54.308Z,85.60
2019-01-29T06:55:23.912Z,77.30
2019-01-29T06:57:55.334Z,85.28
2019-01-29T07:00:26.942Z,79.80
2019-01-29T07:02:57.610Z,78.90
2019-01-29T07:05:26.082Z,75.65
2019-01-29T07:07:55.373Z,71.80
2019-01-29T07:10:24.938Z,75.37
2019-01-29T07:12:58.377Z,68.62
2019-01-29T07:15:46.926Z,60.10
2019-01-29T07:18:32.765Z,65.67
2019-01-29T07:21:02.171Z,61.50
2019-01-29T07:23:30.459Z,61.53
2019-01-29T07:26:00.523Z,68.60
2019-01-29T07:28:29.137Z,65.28
2019-01-29T07:30:57.525Z,62.98
2019-01-29T07:33:25.909Z,63.30
2019-01-29T07:35:54.296Z,63.90
2019-01-29T07:38:22.611Z,58.48
2019-01-29T07:40:50.890Z,58.17
2019-01-29T07:43:19.212Z,68.62
2019-01-29T07:45:47.507Z,56.77
2019-01-29T07:48:15.894Z,60.98
2019-01-29T07:50:44.229Z,52.58
2019-01-29T07:53:13.937Z,51.18
2019-01-29T07:55:42.266Z,51.90
2019-01-29T07:58:10.637Z,49.25
2019-01-29T08:00:39.069Z,55.45
2019-01-29T08:03:07.345Z,54.10
2019-01-29T08:05:35.659Z,57.08
2019-01-29T08:08:04.039Z,53.17
2019-01-29T08:10:32.461Z,50.40
2019-01-29T08:13:00.940Z,47.43
2019-01-29T08:15:29.267Z,51.30
2019-01-29T08:17:57.693Z,51.02
2019-01-29T08:20:26.103Z,54.48
2019-01-29T08:22:54.387Z,50.67
2019-01-29T08:25:23.019Z,44.33
2019-01-29T08:27:51.351Z,47.25
2019-01-29T08:30:20.019Z,47.15
2019-01-29T08:32:48.511Z,41.30
2019-01-29T08:35:18.056Z,41.53
2019-01-29T08:37:46.330Z,37.98
2019-01-29T08:40:35.695Z,40.48
2019-01-29T08:43:04.127Z,37.03
2019-01-29T08:45:33.105Z,39.47
2019-01-29T08:48:01.508Z,32.83
2019-01-29T08:50:30.346Z,38.67
2019-01-29T08:52:58.615Z,34.20
2019-01-29T08:55:29.527Z,36.37
2019-01-29T08:57:57.802Z,30.30
2019-01-29T09:00:27.694Z,36.27
2019-01-29T09:02:58.202Z,29.83
2019-01-29T09:05:30.516Z,30.67
2019-01-29T09:07:58.794Z,36.33
2019-01-29T09:10:27.138Z,33.30
2019-01-29T09:12:55.465Z,30.67
2019-01-29T09:15:23.821Z,28.43
2019-01-29T09:17:52.123Z,23.23
2019-01-29T09:20:21.651Z,22.87
2019-01-29T09:22:49.924Z,26.57
2019-01-29T09:25:20.986Z,22.20
2019-01-29T09:27:48.251Z,25.03
2019-01-29T09:30:20.447Z,20.90
2019-01-29T09:32:49.849Z,21.30
2019-01-29T09:35:18.141Z,28.67
2019-01-29T09:37:46.442Z,24.97
2019-01-29T09:40:23.191Z,22.70
2019-01-29T09:42:51.879Z,26.00
2019-01-29T09:45:20.862Z,20.27
2019-01-29T09:47:50.337Z,24.03
2019-01-29T09:50:24.720Z,21.63
2019-01-29T09:53:14.208Z,23.07
2019-01-29T09:55:42.486Z,19.43
2019-01-29T09:58:10.756Z,18.10
2019-01-29T10:00:39.460Z,18.90
2019-01-29T10:03:08.086Z,24.03
2019-01-29T10:05:36.368Z,17.67
2019-01-29T10:08:05.209Z,15.67
2019-01-29T10:10:33.560Z,20.60
2019-01-29T10:13:02.030Z,17.70
2019-01-29T10:15:35.191Z,16.83
2019-01-29T10:18:03.839Z,14.53
2019-01-29T10:20:32.122Z,15.70
2019-01-29T10:23:00.423Z,15.63
2019-01-29T10:25:37.144Z,17.73
2019-01-29T10:27:58.756Z,18.97
2019-01-29T10:30:27.666Z,20.20
2019-01-29T10:32:56.231Z,22.27
2019-01-29T10:35:27.476Z,14.13
2019-01-29T10:37:58.022Z,17.30
2019-01-29T10:40:27.529Z,13.10
2019-01-29T10:42:56.839Z,16.00
2019-01-29T10:45:27.455Z,13.37
2019-01-29T10:47:55.727Z,11.13
2019-01-29T10:50:26.713Z,13.17
2019-01-29T10:52:55.063Z,18.30
2019-01-29T10:55:23.800Z,11.87
2019-01-29T10:57:54.799Z,9.73
2019-01-29T11:00:51.236Z,13.20
2019-01-29T11:03:21.177Z,19.70
2019-01-29T11:05:49.520Z,15.53
2019-01-29T11:08:17.915Z,17.27
2019-01-29T11:10:46.293Z,17.40
2019-01-29T11:13:14.585Z,13.73
2019-01-29T11:15:42.887Z,16.70
2019-01-29T11:18:13.960Z,19.07
2019-01-29T11:20:43.859Z,9.67
2019-01-29T11:23:12.485Z,18.03
2019-01-29T11:25:42.455Z,12.87
2019-01-29T11:28:10.765Z,20.03
2019-01-29T11:30:39.077Z,13.83
2019-01-29T11:33:07.343Z,13.13
2019-01-29T11:35:35.620Z,14.13
2019-01-29T11:38:04.216Z,12.43
2019-01-29T11:40:33.162Z,14.33
2019-01-29T11:43:01.435Z,15.33
2019-01-29T11:45:35.163Z,18.50
2019-01-29T11:48:03.443Z,12.43
2019-01-29T11:50:31.763Z,13.57
2019-01-29T11:53:00.122Z,16.27
2019-01-29T11:55:28.474Z,14.73
2019-01-29T11:57:56.803Z,12.93
2019-01-29T12:00:29.658Z,13.50
2019-01-29T12:02:57.968Z,13.47
2019-01-29T12:05:27.598Z,15.67
2019-01-29T12:07:55.876Z,12.80
2019-01-29T12:10:24.148Z,14.43
2019-01-29T12:12:52.662Z,15.77
2019-01-29T12:15:22.864Z,9.90
2019-01-29T12:17:51.141Z,12.97
2019-01-29T12:20:20.613Z,12.33
2019-01-29T12:22:48.943Z,15.97
2019-01-29T12:25:17.287Z,15.00
2019-01-29T12:27:46.754Z,10.13
2019-01-29T12:30:21.656Z,13.90
2019-01-29T12:32:54.007Z,16.93
2019-01-29T12:35:23.759Z,10.80
2019-01-29T12:37:52.458Z,9.03
2019-01-29T12:40:21.787Z,9.17
2019-01-29T12:43:00.202Z,11.90
2019-01-29T12:45:28.512Z,10.33
2019-01-29T12:47:56.858Z,13.33
2019-01-29T12:50:32.064Z,10.83
2019-01-29T12:53:03.800Z,9.57
2019-01-29T12:55:32.306Z,12.10
2019-01-29T12:58:00.642Z,8.97
2019-01-29T13:00:33.000Z,9.43
2019-01-29T13:03:01.450Z,10.30
2019-01-29T13:05:29.786Z,11.00
2019-01-29T13:07:59.418Z,12.43
2019-01-29T13:10:29.064Z,10.87
2019-01-29T13:12:59.835Z,6.47
2019-01-29T13:15:32.832Z,7.90
2019-01-29T13:18:01.649Z,9.03
2019-01-29T13:20:30.474Z,10.57
2019-01-29T13:22:58.876Z,11.23
2019-01-29T13:25:27.178Z,9.20
2019-01-29T13:27:55.532Z,10.67
2019-01-29T13:30:43.256Z,10.53
2019-01-29T13:33:12.250Z,10.87
2019-01-29T13:35:40.660Z,12.33
2019-01-29T13:38:10.024Z,12.40
2019-01-29T13:40:39.667Z,11.17
2019-01-29T13:43:08.142Z,10.73
2019-01-29T13:45:36.466Z,10.27
2019-01-29T13:48:07.294Z,12.43
2019-01-29T13:50:44.091Z,14.77
2019-01-29T13:53:12.555Z,7.40
2019-01-29T13:55:40.824Z,8.70
2019-01-29T13:58:09.202Z,11.67
2019-01-29T14:00:39.185Z,12.30
2019-01-29T14:03:14.446Z,11.80
2019-01-29T14:05:42.734Z,11.90
2019-01-29T14:08:11.072Z,14.13
2019-01-29T14:10:39.449Z,9.90
2019-01-29T14:13:07.727Z,12.27
2019-01-29T14:18:24.071Z,15.37
2019-01-29T14:20:52.494Z,11.07
2019-01-29T14:23:20.802Z,10.23
2019-01-29T14:25:49.126Z,11.60
2019-01-29T14:28:17.398Z,6.07
2019-01-29T14:30:45.718Z,11.40
2019-01-29T14:33:15.562Z,9.40
2019-01-29T14:35:44.185Z,8.57
2019-01-29T14:38:21.383Z,8.17
2019-01-29T14:40:49.801Z,10.10
2019-01-29T14:43:24.081Z,9.73
2019-01-29T14:45:52.615Z,7.07
2019-01-29T14:48:20.958Z,11.43
2019-01-29T14:50:49.235Z,10.03
2019-01-29T14:53:17.619Z,6.53
2019-01-29T14:55:46.013Z,7.37
2019-01-29T14:58:14.457Z,9.67
2019-01-29T15:00:44.419Z,8.67
2019-01-29T15:03:14.577Z,7.63
2019-01-29T15:05:42.931Z,8.97
2019-01-29T15:08:12.853Z,14.97
2019-01-29T15:10:42.855Z,14.97
2019-01-29T15:13:13.998Z,8.63
2019-01-29T15:15:50.004Z,10.33
2019-01-29T15:18:23.173Z,10.40
2019-01-29T15:20:53.041Z,16.90
2019-01-29T15:23:21.495Z,15.30
2019-01-29T15:25:49.835Z,13.50
2019-01-29T15:28:18.314Z,9.97
2019-01-29T15:30:46.734Z,11.37
2019-01-29T15:33:15.035Z,11.60
2019-01-29T15:35:43.379Z,13.47
2019-01-29T15:38:11.768Z,12.87
2019-01-29T15:40:43.303Z,11.10
2019-01-29T15:43:31.053Z,11.63
2019-01-29T15:45:59.332Z,14.17
2019-01-29T15:48:27.624Z,10.07
2019-01-29T15:50:58.894Z,7.87
2019-01-29T15:53:27.236Z,13.67
2019-01-29T15:55:55.519Z,12.40
2019-01-29T15:58:23.864Z,14.40
2019-01-29T16:00:52.144Z,11.27
2019-01-29T16:03:20.431Z,11.87
2019-01-29T16:05:48.873Z,13.90
2019-01-29T16:08:17.156Z,12.50
2019-01-29T16:10:47.526Z,12.03
2019-01-29T16:13:15.852Z,11.27
2019-01-29T16:15:45.115Z,8.07
2019-01-29T16:18:13.724Z,13.77
2019-01-29T16:20:46.726Z,11.60
2019-01-29T16:23:16.012Z,12.00
2019-01-29T16:25:44.456Z,16.77
2019-01-29T16:28:12.885Z,14.30
2019-01-29T16:30:41.278Z,17.33
2019-01-29T16:33:09.583Z,14.47
2019-01-29T16:35:40.713Z,17.90
2019-01-29T16:38:09.316Z,20.83
2019-01-29T16:40:46.784Z,19.13
2019-01-29T16:43:15.100Z,20.97
2019-01-29T16:45:43.370Z,20.30
2019-01-29T16:48:11.680Z,23.67
2019-01-29T16:50:39.955Z,19.57
2019-01-29T16:53:08.774Z,14.07
2019-01-29T16:55:37.208Z,15.10
2019-01-29T16:58:06.092Z,15.93
2019-01-29T17:00:40.076Z,14.70
2019-01-29T17:03:08.530Z,15.27
2019-01-29T17:05:36.870Z,19.80
2019-01-29T17:08:05.406Z,16.77
2019-01-29T17:10:34.170Z,13.30
2019-01-29T17:13:02.671Z,19.83
2019-01-29T17:15:35.581Z,21.50
2019-01-29T17:18:04.902Z,16.23
2019-01-29T17:20:41.188Z,16.13
2019-01-29T17:23:10.563Z,14.40
2019-01-29T17:25:38.905Z,16.20
2019-01-29T17:28:07.180Z,16.43
2019-01-29T17:30:43.382Z,15.67
2019-01-29T17:33:16.465Z,14.97
2019-01-29T17:35:44.834Z,13.90
2019-01-29T17:38:13.229Z,20.27
2019-01-29T17:40:42.090Z,12.47
2019-01-29T17:43:10.470Z,10.47
2019-01-29T17:45:44.345Z,10.53
2019-01-29T17:48:12.685Z,12.20
2019-01-29T17:50:42.950Z,12.10
2019-01-29T17:53:16.439Z,8.97
2019-01-29T17:55:46.169Z,8.50
2019-01-29T17:58:15.385Z,10.43
2019-01-29T18:00:45.481Z,11.17
2019-01-29T18:03:13.821Z,11.03
2019-01-29T18:05:43.110Z,13.43
2019-01-29T18:08:11.485Z,9.77
2019-01-29T18:10:39.885Z,11.03
2019-01-29T18:13:08.307Z,13.53
2019-01-29T18:15:36.618Z,10.07
2019-01-29T18:18:06.533Z,10.07
2019-01-29T18:20:34.881Z,9.57
2019-01-29T18:23:05.787Z,13.20
2019-01-29T18:25:33.378Z,14.73
2019-01-29T18:28:01.677Z,9.00
2019-01-29T18:30:32.396Z,11.03
2019-01-29T18:33:00.844Z,11.13
2019-01-29T18:35:29.155Z,12.63
2019-01-29T18:37:57.610Z,11.67
2019-01-29T18:40:32.839Z,15.90
2019-01-29T18:43:02.366Z,12.13
2019-01-29T18:45:33.713Z,16.40
2019-01-29T18:48:02.168Z,10.00
2019-01-29T18:50:30.757Z,10.55
2019-01-29T18:52:59.200Z,7.87
2019-01-29T18:55:47.003Z,10.73
2019-01-29T18:58:15.456Z,13.20
2019-01-29T19:00:54.054Z,9.90
2019-01-29T19:03:13.944Z,9.37
2019-01-29T19:05:42.223Z,11.97
2019-01-29T19:08:29.953Z,9.30
2019-01-29T19:10:58.354Z,8.33
2019-01-29T19:13:26.634Z,10.73
2019-01-29T19:15:55.259Z,12.30
2019-01-29T19:18:23.540Z,10.20
2019-01-29T19:20:51.861Z,11.17
2019-01-29T19:23:20.282Z,12.17
2019-01-29T19:25:48.566Z,13.50
2019-01-29T19:28:22.056Z,16.20
2019-01-29T19:30:46.868Z,11.33
2019-01-29T19:33:15.144Z,14.70
2019-01-29T19:35:43.424Z,12.00
2019-01-29T19:38:11.718Z,15.97
2019-01-29T19:40:40.524Z,14.37
2019-01-29T19:43:08.978Z,12.37
2019-01-29T19:45:38.457Z,13.33
2019-01-29T19:48:06.982Z,13.40
2019-01-29T19:50:35.260Z,13.57
2019-01-29T19:53:03.609Z,11.17
2019-01-29T19:55:31.895Z,10.90
2019-01-29T19:58:08.671Z,11.77
2019-01-29T20:00:36.032Z,11.83
2019-01-29T20:03:05.021Z,11.93
2019-01-29T20:05:33.444Z,11.53
2019-01-29T20:08:01.968Z,14.90
2019-01-29T20:10:31.768Z,14.67
2019-01-29T20:13:00.678Z,15.60
2019-01-29T20:15:29.237Z,12.13
2019-01-29T20:18:00.292Z,11.43
2019-01-29T20:20:31.642Z,12.82
2019-01-29T20:23:07.608Z,9.97
2019-01-29T20:25:31.754Z,13.80
2019-01-29T20:28:00.076Z,11.73
2019-01-29T20:30:32.395Z,10.47
2019-01-29T20:33:00.680Z,10.90
2019-01-29T20:35:29.024Z,12.57
2019-01-29T20:37:57.344Z,12.23
2019-01-29T20:40:25.628Z,10.53
2019-01-29T20:42:55.139Z,11.80
2019-01-29T20:45:25.091Z,10.87
2019-01-29T20:47:53.496Z,10.90
2019-01-29T20:50:24.979Z,12.70
2019-01-29T20:52:53.295Z,12.63
2019-01-29T20:55:21.601Z,12.20
2019-01-29T20:57:49.955Z,14.87
2019-01-29T21:00:23.865Z,14.93
2019-01-29T21:02:53.306Z,13.97
2019-01-29T21:05:21.618Z,14.30
2019-01-29T21:07:52.712Z,13.53
2019-01-29T21:10:22.345Z,15.80
2019-01-29T21:12:50.761Z,14.93
2019-01-29T21:15:21.153Z,14.97
2019-01-29T21:17:49.495Z,11.73
2019-01-29T21:20:20.371Z,16.53
2019-01-29T21:22:50.151Z,13.77
2019-01-29T21:25:18.427Z,14.53
2019-01-29T21:27:48.357Z,13.13
2019-01-29T21:30:44.621Z,14.53
2019-01-29T21:33:14.380Z,12.90
2019-01-29T21:35:44.872Z,20.20
2019-01-29T21:38:13.318Z,11.88
2019-01-29T21:40:46.567Z,10.97
2019-01-29T21:43:14.919Z,10.73
2019-01-29T21:45:44.575Z,11.77
2019-01-29T21:48:12.861Z,13.03
2019-01-29T21:50:41.146Z,16.27
2019-01-29T21:53:10.400Z,14.40
2019-01-29T21:55:38.664Z,16.10
2019-01-29T21:58:08.501Z,12.45
2019-01-29T22:00:38.844Z,14.20
2019-01-29T22:03:08.785Z,9.53
2019-01-29T22:05:38.185Z,15.43
2019-01-29T22:08:07.270Z,12.20
2019-01-29T22:10:39.024Z,15.20
2019-01-29T22:13:07.950Z,14.23
2019-01-29T22:15:39.305Z,14.90
2019-01-29T22:18:09.765Z,11.63
2019-01-29T22:20:38.050Z,14.67
2019-01-29T22:23:06.478Z,12.00
2019-01-29T22:25:37.689Z,15.77
2019-01-29T22:28:06.618Z,11.97
2019-01-29T22:30:38.563Z,16.67
2019-01-29T22:33:07.084Z,9.70
2019-01-29T22:35:35.380Z,14.53
2019-01-29T22:38:03.881Z,10.63
2019-01-29T22:40:32.926Z,10.82
2019-01-29T22:43:06.318Z,21.30
2019-01-29T22:45:34.622Z,14.57
2019-01-29T22:48:04.554Z,13.47
2019-01-29T22:50:37.358Z,10.60
2019-01-29T22:53:05.713Z,14.80
2019-01-29T22:55:34.043Z,15.23
2019-01-29T22:58:05.891Z,12.23
2019-01-29T23:00:56.752Z,15.57
2019-01-29T23:03:27.730Z,14.78
2019-01-29T23:05:59.284Z,11.90
2019-01-29T23:08:27.586Z,14.37
2019-01-29T23:10:57.398Z,15.58
2019-01-29T23:13:27.446Z,11.83
2019-01-29T23:15:58.817Z,13.90
2019-01-29T23:18:28.693Z,14.77
2019-01-29T23:20:56.985Z,17.50
2019-01-29T23:23:25.278Z,23.30
2019-01-29T23:25:55.217Z,18.13
2019-01-29T23:28:26.388Z,19.70
2019-01-29T23:33:31.605Z,17.13
2019-01-29T23:35:59.965Z,17.23
2019-01-29T23:38:28.256Z,21.63
2019-01-29T23:40:56.558Z,18.43
2019-01-29T23:43:25.215Z,18.97
2019-01-29T23:45:53.484Z,17.30
2019-01-29T23:48:21.787Z,19.43
2019-01-29T23:50:50.078Z,19.83
2019-01-29T23:53:18.983Z,18.37
2019-01-29T23:55:47.348Z,20.13
2019-01-29T23:58:15.619Z,20.90
